Nuevo, CA (92567)

6:08 PM PDT on July 25, 2016 (GMT -0700)
Nuview Union School District | | Change Station

Elev 1463 ft 33.82 °N, 117.13 °W | Updated 6 minutes ago

Partly Cloudy
Partly Cloudy
92.6 °F
Feels Like 94 °F
N
5.0
Wind Variable Wind from South
Gusts 9.0 mph

Today
High -- | Low -- °F
--% Chance of Precip.
Yesterday
High -- | Low -- °F
Precip. -- in
Pressure 29.83 in
Visibility 10.0 miles
Clouds Few 22000 ft
Heat Index 94 °F
Dew Point 63 °F
Humidity 37%
Rainfall 0.00 in
Snow Depth Not available.
5:55 AM 7:53 PM
Waning Gibbous, 60% visible
METAR KRIV 260058Z AUTO 31011KT 10SM FEW220 35/08 A2988 RMK AO2 SLP102 T03460083
Pressure 29.83 in
Visibility 10.0 miles
Clouds Few 22000 ft
Heat Index 94 °F
Dew Point 63 °F
Humidity 37%
Rainfall 0.00 in
Snow Depth Not available.
5:55 AM 7:53 PM
Waning Gibbous, 60% visible
METAR KRIV 260058Z AUTO 31011KT 10SM FEW220 35/08 A2988 RMK AO2 SLP102 T03460083

10-Day Weather Forecast

Almanac

Astronomy

Jul. 25, 2016 Rise Set
Actual Time
Civil Twilight
Nautical Twilight
Astronomical Twilight
Moon
Length of Visible Light
Length of Day
Tomorrow will be .
, % of the Moon is Illuminated

Today's Extremes

State Highs State Lows

Community

WunderPhotos

Upload Photos

1,927,477 photos uploaded!

WunderBlog® & News

Nearby

Air Quality

  Air Quality AQ Index Pollutant
Not available.

Snow Depth

Station Depth Elevation

Earthquake Activity

City Distance Mag. Time & Date
Minimum magnitude displayed is 2.5.

Coastal Water Temperatures

Place Temperature

Stations

Nearby Weather Stations

Station Location Temp. Windchill Dew Point Humidity Wind Precip. Elev Updated Type
                   

Watches & Warnings

There are currently no watches in effect.